createdAt,value
2023-05-22T00:00:14.348Z,18.20
2023-05-22T00:02:43.840Z,18.30
2023-05-22T00:05:12.982Z,18.20
2023-05-22T00:07:43.006Z,18.20
2023-05-22T00:10:12.729Z,18.20
2023-05-22T00:12:40.787Z,18.00
2023-05-22T00:15:09.810Z,18.00
2023-05-22T00:17:37.923Z,17.90
2023-05-22T00:20:10.758Z,17.90
2023-05-22T00:22:38.952Z,17.90
2023-05-22T00:25:08.412Z,17.80
2023-05-22T00:27:37.854Z,17.70
2023-05-22T00:30:08.308Z,17.70
2023-05-22T00:32:36.304Z,17.70
2023-05-22T00:35:04.493Z,17.60
2023-05-22T00:37:32.510Z,17.70
2023-05-22T00:40:00.519Z,17.60
2023-05-22T00:42:29.051Z,17.50
2023-05-22T00:44:58.350Z,17.50
2023-05-22T00:47:27.202Z,17.50
2023-05-22T00:49:55.703Z,17.50
2023-05-22T00:52:24.813Z,17.40
2023-05-22T00:54:55.169Z,17.50
2023-05-22T00:57:24.646Z,17.30
2023-05-22T00:59:53.266Z,17.30
2023-05-22T01:02:23.092Z,17.30
2023-05-22T01:04:51.155Z,17.30
2023-05-22T01:07:19.171Z,17.30
2023-05-22T01:09:47.135Z,17.20
2023-05-22T01:12:21.930Z,17.10
2023-05-22T01:15:00.688Z,17.00
2023-05-22T01:17:41.069Z,16.90
2023-05-22T01:20:16.922Z,16.80
2023-05-22T01:23:27.608Z,16.80
2023-05-22T01:26:22.081Z,16.70
2023-05-22T01:29:09.698Z,16.80
2023-05-22T01:31:42.530Z,16.70
2023-05-22T01:34:13.383Z,16.70
2023-05-22T01:36:42.851Z,16.80
2023-05-22T01:39:11.229Z,16.70
2023-05-22T01:41:39.469Z,16.60
2023-05-22T01:44:07.531Z,16.50
2023-05-22T01:46:35.552Z,16.50
2023-05-22T01:49:04.962Z,16.50
2023-05-22T01:51:44.482Z,16.50
2023-05-22T01:54:18.200Z,16.40
2023-05-22T01:56:54.878Z,16.30
2023-05-22T01:59:30.935Z,16.20
2023-05-22T02:02:04.231Z,16.20
2023-05-22T02:04:36.404Z,16.10
2023-05-22T02:07:05.128Z,16.00
2023-05-22T02:09:34.217Z,16.00
2023-05-22T02:12:02.290Z,16.00
2023-05-22T02:14:31.190Z,15.90
2023-05-22T02:17:02.176Z,15.90
2023-05-22T02:19:30.175Z,15.90
2023-05-22T02:21:59.885Z,15.90
2023-05-22T02:24:27.935Z,15.80
2023-05-22T02:26:56.287Z,15.80
2023-05-22T02:29:24.256Z,15.80
2023-05-22T02:31:54.769Z,15.80
2023-05-22T02:34:22.817Z,15.80
2023-05-22T02:36:51.006Z,15.80
2023-05-22T02:39:20.582Z,15.70
2023-05-22T02:41:48.522Z,15.80
2023-05-22T02:44:16.464Z,15.80
2023-05-22T02:46:44.422Z,15.70
2023-05-22T02:49:12.457Z,15.70
2023-05-22T02:51:40.662Z,15.70
2023-05-22T02:54:08.609Z,15.70
2023-05-22T02:56:38.349Z,15.70
2023-05-22T02:59:06.240Z,15.70
2023-05-22T03:01:34.702Z,15.80
2023-05-22T03:04:02.758Z,15.80
2023-05-22T03:06:32.310Z,15.80
2023-05-22T03:09:00.288Z,15.70
2023-05-22T03:11:28.308Z,15.70
2023-05-22T03:13:57.664Z,15.70
2023-05-22T03:16:25.890Z,15.70
2023-05-22T03:19:09.203Z,15.70
2023-05-22T03:21:37.521Z,15.70
2023-05-22T03:24:05.924Z,15.70
2023-05-22T03:26:34.091Z,15.70
2023-05-22T03:29:03.627Z,15.60
2023-05-22T03:31:32.461Z,15.60
2023-05-22T03:34:01.062Z,15.60
2023-05-22T03:36:32.367Z,15.60
2023-05-22T03:39:00.497Z,15.60
2023-05-22T03:41:28.484Z,15.60
2023-05-22T03:43:57.284Z,15.60
2023-05-22T03:46:26.807Z,15.60
2023-05-22T03:48:54.852Z,15.60
2023-05-22T03:51:22.864Z,15.60
2023-05-22T03:53:50.887Z,15.70
2023-05-22T03:56:19.597Z,15.70
2023-05-22T03:58:47.494Z,15.80
2023-05-22T04:01:17.024Z,15.90
2023-05-22T04:03:46.532Z,15.90
2023-05-22T04:06:14.732Z,16.10
2023-05-22T04:08:42.706Z,16.20
2023-05-22T04:11:11.124Z,16.20
2023-05-22T04:13:39.149Z,16.30
2023-05-22T04:16:07.384Z,16.50
2023-05-22T04:18:35.306Z,16.60
2023-05-22T04:21:08.151Z,16.70
2023-05-22T04:23:36.065Z,16.80
2023-05-22T04:26:03.939Z,16.90
2023-05-22T04:28:31.957Z,17.00
2023-05-22T04:31:00.281Z,17.20
2023-05-22T04:33:29.069Z,17.30
2023-05-22T04:35:56.988Z,17.40
2023-05-22T04:38:27.118Z,17.50
2023-05-22T04:40:55.082Z,17.60
2023-05-22T04:43:26.400Z,17.70
2023-05-22T04:45:54.946Z,17.80
2023-05-22T04:48:23.124Z,18.00
2023-05-22T04:50:51.189Z,18.10
2023-05-22T04:53:19.122Z,18.20
2023-05-22T04:55:48.422Z,18.30
2023-05-22T04:58:16.638Z,18.40
2023-05-22T05:00:44.617Z,18.40
2023-05-22T05:03:12.790Z,18.50
2023-05-22T05:05:40.944Z,18.60
2023-05-22T05:08:08.902Z,18.60
2023-05-22T05:10:36.897Z,18.50
2023-05-22T05:13:06.262Z,18.30
2023-05-22T05:15:34.210Z,18.30
2023-05-22T05:18:02.275Z,18.20
2023-05-22T05:20:30.547Z,18.20
2023-05-22T05:22:58.432Z,18.10
2023-05-22T05:25:26.326Z,18.10
2023-05-22T05:27:54.267Z,18.10
2023-05-22T05:30:23.659Z,18.10
2023-05-22T05:32:51.758Z,18.50
2023-05-22T05:35:19.943Z,18.80
2023-05-22T05:37:47.884Z,19.10
2023-05-22T05:40:16.249Z,19.10
2023-05-22T05:42:44.198Z,19.10
2023-05-22T05:45:14.336Z,19.10
2023-05-22T05:47:43.900Z,19.10
2023-05-22T05:50:15.461Z,19.30
2023-05-22T05:52:43.517Z,19.40
2023-05-22T05:55:11.831Z,19.50
2023-05-22T05:57:40.009Z,19.90
2023-05-22T06:00:11.460Z,20.10
2023-05-22T06:02:39.485Z,20.40
2023-05-22T06:05:10.417Z,20.60
2023-05-22T06:07:39.820Z,20.70
2023-05-22T06:10:09.531Z,20.80
2023-05-22T06:12:37.537Z,20.80
2023-05-22T06:15:07.389Z,20.90
2023-05-22T06:17:35.878Z,20.90
2023-05-22T06:20:07.119Z,20.90
2023-05-22T06:22:36.668Z,21.00
2023-05-22T06:25:05.440Z,21.10
2023-05-22T06:27:33.435Z,21.10
2023-05-22T06:30:03.685Z,21.30
2023-05-22T06:32:32.414Z,21.40
2023-05-22T06:35:00.485Z,21.60
2023-05-22T06:37:28.830Z,21.70
2023-05-22T06:39:58.190Z,21.90
2023-05-22T06:42:26.224Z,21.90
2023-05-22T06:44:54.384Z,21.80
2023-05-22T06:47:22.342Z,21.70
2023-05-22T06:49:50.695Z,21.80
2023-05-22T06:52:18.668Z,21.70
2023-05-22T06:54:46.918Z,21.80
2023-05-22T06:57:16.291Z,21.80
2023-05-22T06:59:44.258Z,21.80
2023-05-22T07:02:12.288Z,21.80
2023-05-22T07:04:40.305Z,21.70
2023-05-22T07:07:09.438Z,21.70
2023-05-22T07:09:37.347Z,21.70
2023-05-22T07:12:07.070Z,21.80
2023-05-22T07:14:36.465Z,21.90
2023-05-22T07:17:04.519Z,21.90
2023-05-22T07:19:32.602Z,21.90
2023-05-22T07:22:00.809Z,21.80
2023-05-22T07:24:28.767Z,22.00
2023-05-22T07:26:56.773Z,22.10
2023-05-22T07:29:24.749Z,22.40
2023-05-22T07:31:54.108Z,22.50
2023-05-22T07:34:22.337Z,22.70
2023-05-22T07:36:50.916Z,22.80
2023-05-22T07:39:18.912Z,22.80
2023-05-22T07:41:51.177Z,22.70
2023-05-22T07:44:19.321Z,22.60
2023-05-22T07:46:47.352Z,22.50
2023-05-22T07:49:19.750Z,22.50
2023-05-22T07:51:48.292Z,22.60
2023-05-22T07:54:16.579Z,22.60
2023-05-22T07:56:47.758Z,22.60
2023-05-22T07:59:19.622Z,22.60
2023-05-22T08:01:47.695Z,22.80
2023-05-22T08:04:17.293Z,22.90
2023-05-22T08:06:45.449Z,23.10
2023-05-22T08:09:13.402Z,23.30
2023-05-22T08:11:42.397Z,23.60
2023-05-22T08:14:10.863Z,23.70
2023-05-22T08:16:38.934Z,23.60
2023-05-22T08:19:08.053Z,23.80
2023-05-22T08:21:37.734Z,24.10
2023-05-22T08:24:06.062Z,24.20
2023-05-22T08:26:34.313Z,24.60
2023-05-22T08:29:02.632Z,24.60
2023-05-22T08:31:30.961Z,24.70
2023-05-22T08:34:02.589Z,24.70
2023-05-22T08:36:33.785Z,24.90
2023-05-22T08:39:03.771Z,25.10
2023-05-22T08:41:31.786Z,25.30
2023-05-22T08:43:59.943Z,25.30
2023-05-22T08:46:30.014Z,25.30
2023-05-22T08:48:58.767Z,25.50
2023-05-22T08:51:31.557Z,25.60
2023-05-22T08:54:01.589Z,25.60
2023-05-22T08:56:33.428Z,25.50
2023-05-22T08:59:04.773Z,25.40
2023-05-22T09:01:33.718Z,25.70
2023-05-22T09:04:03.620Z,26.10
2023-05-22T09:06:31.858Z,26.40
2023-05-22T09:09:01.474Z,26.30
2023-05-22T09:11:30.997Z,26.10
2023-05-22T09:14:09.024Z,25.90
2023-05-22T09:16:46.148Z,25.60
2023-05-22T09:19:14.857Z,25.50
2023-05-22T09:21:44.413Z,25.30
2023-05-22T09:24:13.234Z,25.30
2023-05-22T09:26:42.847Z,25.20
2023-05-22T09:29:11.078Z,25.20
2023-05-22T09:31:43.815Z,25.30
2023-05-22T09:34:14.330Z,25.50
2023-05-22T09:36:42.960Z,25.70
2023-05-22T09:39:11.151Z,26.00
2023-05-22T09:41:40.425Z,26.20
2023-05-22T09:44:13.846Z,26.30
2023-05-22T09:46:43.442Z,26.40
2023-05-22T09:49:14.118Z,26.50
2023-05-22T09:51:47.877Z,26.50
2023-05-22T09:54:17.836Z,26.50
2023-05-22T09:56:50.139Z,26.40
2023-05-22T09:59:23.597Z,26.40
2023-05-22T10:01:52.078Z,26.40
2023-05-22T10:04:21.434Z,26.30
2023-05-22T10:06:52.708Z,26.20
2023-05-22T10:09:25.848Z,26.10
2023-05-22T10:11:56.054Z,25.90
2023-05-22T10:14:28.745Z,25.70
2023-05-22T10:17:02.085Z,25.50
2023-05-22T10:19:32.923Z,25.30
2023-05-22T10:22:02.702Z,25.50
2023-05-22T10:24:31.354Z,25.60
2023-05-22T10:27:00.225Z,25.80
2023-05-22T10:29:38.113Z,25.90
2023-05-22T10:32:11.667Z,26.00
2023-05-22T10:34:51.924Z,26.10
2023-05-22T10:37:32.610Z,26.10
2023-05-22T10:40:04.956Z,26.20
2023-05-22T10:42:33.976Z,26.20
2023-05-22T10:45:04.420Z,26.30
2023-05-22T10:47:34.761Z,26.30
2023-05-22T10:50:09.353Z,26.40
2023-05-22T10:52:37.553Z,26.40
2023-05-22T10:55:08.139Z,26.40
2023-05-22T10:57:38.135Z,26.40
2023-05-22T11:00:18.744Z,26.20
2023-05-22T11:02:47.576Z,26.20
2023-05-22T11:05:45.891Z,26.10
2023-05-22T11:08:38.509Z,26.20
2023-05-22T11:11:14.252Z,26.20
2023-05-22T11:13:43.604Z,26.30
2023-05-22T11:16:13.682Z,26.40
2023-05-22T11:18:41.614Z,26.50
2023-05-22T11:21:13.685Z,26.60
2023-05-22T11:23:42.678Z,26.50
2023-05-22T11:26:22.407Z,26.50
2023-05-22T11:28:51.805Z,26.40
2023-05-22T11:31:23.410Z,26.40
2023-05-22T11:33:51.493Z,26.30
2023-05-22T11:36:19.644Z,26.20
2023-05-22T11:38:47.799Z,26.10
2023-05-22T11:41:17.258Z,26.10
2023-05-22T11:43:45.362Z,26.10
2023-05-22T11:53:49.571Z,26.20
2023-05-22T11:56:21.822Z,26.10
2023-05-22T11:58:50.640Z,26.00
2023-05-22T12:01:18.944Z,25.90
2023-05-22T12:03:47.057Z,25.90
2023-05-22T12:06:17.147Z,26.00
2023-05-22T12:08:45.634Z,26.00
2023-05-22T12:11:15.679Z,26.10
2023-05-22T12:13:43.958Z,26.30
2023-05-22T12:16:34.945Z,26.40
2023-05-22T12:19:06.419Z,26.40
2023-05-22T12:21:35.576Z,26.50
2023-05-22T12:24:05.189Z,26.50
2023-05-22T12:26:34.755Z,26.60
2023-05-22T12:29:03.057Z,26.50
2023-05-22T12:31:36.847Z,26.40
2023-05-22T12:34:07.548Z,26.50
2023-05-22T12:36:36.759Z,26.60
2023-05-22T12:39:09.229Z,26.70
2023-05-22T12:41:38.934Z,26.80
2023-05-22T12:44:07.139Z,26.80
2023-05-22T12:46:35.859Z,26.80
2023-05-22T12:49:03.955Z,26.90
2023-05-22T12:51:33.370Z,26.90
2023-05-22T12:54:01.984Z,26.90
2023-05-22T12:56:30.411Z,27.10
2023-05-22T12:59:00.124Z,27.30
2023-05-22T13:01:28.306Z,27.50
2023-05-22T13:03:56.393Z,27.70
2023-05-22T13:06:24.343Z,27.70
2023-05-22T13:08:52.531Z,27.90
2023-05-22T13:11:23.347Z,27.80
2023-05-22T13:13:51.380Z,27.80
2023-05-22T13:16:20.830Z,27.80
2023-05-22T13:18:49.190Z,27.80
2023-05-22T13:21:17.536Z,27.80
2023-05-22T13:23:45.835Z,27.90
2023-05-22T13:26:13.773Z,28.10
2023-05-22T13:28:41.751Z,28.20
2023-05-22T13:31:09.720Z,28.40
2023-05-22T13:33:39.103Z,28.50
2023-05-22T13:36:07.417Z,28.40
2023-05-22T13:38:35.372Z,28.40
2023-05-22T13:41:03.448Z,28.40
2023-05-22T13:43:31.420Z,28.20
2023-05-22T13:45:59.338Z,28.20
2023-05-22T13:48:27.298Z,28.10
2023-05-22T13:50:56.561Z,28.10
2023-05-22T13:53:24.541Z,28.10
2023-05-22T13:55:52.510Z,28.30
2023-05-22T13:58:20.522Z,28.40
2023-05-22T14:00:48.570Z,28.60
2023-05-22T14:03:17.924Z,28.70
2023-05-22T14:05:46.101Z,28.60
2023-05-22T14:08:15.552Z,28.50
2023-05-22T14:10:43.561Z,28.50
2023-05-22T14:13:11.612Z,28.40
2023-05-22T14:15:40.037Z,28.30
2023-05-22T14:18:08.280Z,28.20
2023-05-22T14:20:36.402Z,28.10
2023-05-22T14:23:04.366Z,27.90
2023-05-22T14:25:33.690Z,27.70
2023-05-22T14:28:01.789Z,27.60
2023-05-22T14:30:29.751Z,27.70
2023-05-22T14:32:57.902Z,27.80
2023-05-22T14:35:25.928Z,28.00
2023-05-22T14:37:53.908Z,27.90
2023-05-22T14:40:22.023Z,27.90
2023-05-22T14:42:53.877Z,27.90
2023-05-22T14:45:22.242Z,27.90
2023-05-22T14:47:50.209Z,27.80
2023-05-22T14:50:20.597Z,27.80
2023-05-22T14:52:49.388Z,27.80
2023-05-22T14:55:18.014Z,27.80
2023-05-22T14:57:46.260Z,27.80
2023-05-22T15:00:16.494Z,27.80
2023-05-22T15:02:44.763Z,27.70
2023-05-22T15:05:12.923Z,27.80
2023-05-22T15:07:44.548Z,27.70
2023-05-22T15:10:14.276Z,27.60
2023-05-22T15:12:42.264Z,27.50
2023-05-22T15:15:10.937Z,27.30
2023-05-22T15:17:42.646Z,27.00
2023-05-22T15:20:12.017Z,26.70
2023-05-22T15:22:40.344Z,26.60
2023-05-22T15:25:11.503Z,26.60
2023-05-22T15:27:40.548Z,26.60
2023-05-22T15:30:10.192Z,26.70
2023-05-22T15:32:40.121Z,26.70
2023-05-22T15:35:09.169Z,26.80
2023-05-22T15:37:37.199Z,26.80
2023-05-22T15:40:06.769Z,26.80
2023-05-22T15:42:34.768Z,26.80
2023-05-22T15:45:03.130Z,26.80
2023-05-22T15:47:31.119Z,26.80
2023-05-22T15:50:00.462Z,26.70
2023-05-22T15:52:28.484Z,26.60
2023-05-22T15:54:57.157Z,26.50
2023-05-22T15:57:25.527Z,26.30
2023-05-22T15:59:53.494Z,26.20
2023-05-22T16:02:21.510Z,26.20
2023-05-22T16:04:50.723Z,26.10
2023-05-22T16:07:20.255Z,26.10
2023-05-22T16:09:50.222Z,26.20
2023-05-22T16:12:18.249Z,26.30
2023-05-22T16:14:46.416Z,26.30
2023-05-22T16:17:14.768Z,26.20
2023-05-22T16:19:43.285Z,26.20
2023-05-22T16:22:11.271Z,26.10
2023-05-22T16:24:40.650Z,26.10
2023-05-22T16:27:08.786Z,26.00
2023-05-22T16:29:36.743Z,26.00
2023-05-22T16:32:05.021Z,26.10
2023-05-22T16:34:33.953Z,26.10
2023-05-22T16:37:01.949Z,26.00
2023-05-22T16:39:29.957Z,26.00
2023-05-22T16:41:59.320Z,25.90
2023-05-22T16:44:27.791Z,25.90
2023-05-22T16:46:55.880Z,25.70
2023-05-22T16:49:23.921Z,25.60
2023-05-22T16:51:51.905Z,25.50
2023-05-22T16:54:19.866Z,25.40
2023-05-22T16:56:47.873Z,25.40
2023-05-22T16:59:17.533Z,25.30
2023-05-22T17:01:45.450Z,25.20
2023-05-22T17:04:15.737Z,25.20
2023-05-22T17:06:43.980Z,25.30
2023-05-22T17:09:12.093Z,25.20
2023-05-22T17:11:40.111Z,25.30
2023-05-22T17:14:08.102Z,25.40
2023-05-22T17:16:37.966Z,25.40
2023-05-22T17:19:06.515Z,25.20
2023-05-22T17:21:34.607Z,25.20
2023-05-22T17:24:02.644Z,25.10
2023-05-22T17:26:30.603Z,25.10
2023-05-22T17:28:58.618Z,25.00
2023-05-22T17:31:27.141Z,24.90
2023-05-22T17:33:56.533Z,24.70
2023-05-22T17:36:24.509Z,24.60
2023-05-22T17:38:52.577Z,24.50
2023-05-22T17:41:20.483Z,24.40
2023-05-22T17:43:48.462Z,24.30
2023-05-22T17:46:16.467Z,24.20
2023-05-22T17:48:44.554Z,24.20
2023-05-22T17:51:13.822Z,24.10
2023-05-22T17:53:41.996Z,24.00
2023-05-22T17:56:09.966Z,23.80
2023-05-22T17:58:37.880Z,23.70
2023-05-22T18:01:05.908Z,23.70
2023-05-22T18:03:34.273Z,23.50
2023-05-22T18:06:02.423Z,23.40
2023-05-22T18:08:31.723Z,23.20
2023-05-22T18:10:59.621Z,23.10
2023-05-22T18:13:27.579Z,23.10
2023-05-22T18:15:55.733Z,23.00
2023-05-22T18:18:23.866Z,22.80
2023-05-22T18:20:51.917Z,22.60
2023-05-22T18:23:20.607Z,22.40
2023-05-22T18:25:49.850Z,22.20
2023-05-22T18:28:19.937Z,22.10
2023-05-22T18:30:49.529Z,21.90
2023-05-22T18:33:17.436Z,21.80
2023-05-22T18:35:45.476Z,21.60
2023-05-22T18:38:13.498Z,21.50
2023-05-22T18:40:41.642Z,21.40
2023-05-22T18:43:11.233Z,21.30
2023-05-22T18:45:39.413Z,21.10
2023-05-22T18:48:07.379Z,21.00
2023-05-22T18:50:35.656Z,20.80
2023-05-22T18:53:03.642Z,20.60
2023-05-22T18:55:31.520Z,20.40
2023-05-22T18:57:59.362Z,20.10
2023-05-22T19:00:28.700Z,20.00
2023-05-22T19:02:56.674Z,19.80
2023-05-22T19:05:24.762Z,19.50
2023-05-22T19:07:53.147Z,19.40
2023-05-22T19:10:21.107Z,19.10
2023-05-22T19:12:49.060Z,19.00
2023-05-22T19:15:17.037Z,18.80
2023-05-22T19:17:46.365Z,18.60
2023-05-22T19:20:14.385Z,18.50
2023-05-22T19:22:42.363Z,18.30
2023-05-22T19:25:11.179Z,18.20
2023-05-22T19:27:39.417Z,18.10
2023-05-22T19:30:08.715Z,17.90
2023-05-22T19:32:36.665Z,17.80
2023-05-22T19:35:06.725Z,17.70
2023-05-22T19:37:34.732Z,17.60
2023-05-22T19:40:02.668Z,17.50
2023-05-22T19:42:30.745Z,17.40
2023-05-22T19:44:59.327Z,17.30
2023-05-22T19:47:27.480Z,17.20
2023-05-22T19:49:55.503Z,17.10
2023-05-22T19:52:26.541Z,17.00
2023-05-22T19:54:54.580Z,16.90
2023-05-22T19:57:22.707Z,16.70
2023-05-22T19:59:51.358Z,16.60
2023-05-22T20:02:19.336Z,16.50
2023-05-22T20:04:48.499Z,16.40
2023-05-22T20:07:16.682Z,16.30
2023-05-22T20:09:46.114Z,16.30
2023-05-22T20:12:14.903Z,16.40
2023-05-22T20:14:43.017Z,16.30
2023-05-22T20:17:11.023Z,16.30
2023-05-22T20:19:39.117Z,16.20
2023-05-22T20:22:07.827Z,16.20
2023-05-22T20:24:37.157Z,16.10
2023-05-22T20:27:07.228Z,16.00
2023-05-22T20:29:35.191Z,16.00
2023-05-22T20:32:03.779Z,15.90
2023-05-22T20:34:31.848Z,15.90
2023-05-22T20:37:00.159Z,15.80
2023-05-22T20:39:28.371Z,15.80
2023-05-22T20:41:56.392Z,15.80
2023-05-22T20:44:25.633Z,15.70
2023-05-22T20:46:54.145Z,15.60
2023-05-22T20:49:22.444Z,15.60
2023-05-22T20:51:51.813Z,15.60
2023-05-22T20:54:19.776Z,15.50
2023-05-22T20:56:47.856Z,15.50
2023-05-22T20:59:15.831Z,15.40
2023-05-22T21:01:45.934Z,15.30
2023-05-22T21:04:13.993Z,15.30
2023-05-22T21:06:41.891Z,15.20
2023-05-22T21:09:10.140Z,15.20
2023-05-22T21:11:38.305Z,15.20
2023-05-22T21:14:06.309Z,15.10
2023-05-22T21:16:35.795Z,15.00
2023-05-22T21:19:07.468Z,15.00
2023-05-22T21:21:36.348Z,14.90
2023-05-22T21:24:04.484Z,15.00
2023-05-22T21:26:32.475Z,14.90
2023-05-22T21:29:00.518Z,14.80
2023-05-22T21:31:28.929Z,14.70
2023-05-22T21:33:57.576Z,14.70
2023-05-22T21:36:27.120Z,14.70
2023-05-22T21:38:57.616Z,14.60
2023-05-22T21:41:26.025Z,14.60
2023-05-22T21:43:54.458Z,14.50
2023-05-22T21:46:23.306Z,14.50
2023-05-22T21:48:51.429Z,14.50
2023-05-22T21:51:19.419Z,14.40
2023-05-22T21:53:48.968Z,14.40
2023-05-22T21:56:18.060Z,14.40
2023-05-22T21:58:46.002Z,14.40
2023-05-22T22:01:14.185Z,14.30
2023-05-22T22:03:42.250Z,14.40
2023-05-22T22:06:10.340Z,14.30
2023-05-22T22:08:38.194Z,14.30
2023-05-22T22:11:07.765Z,14.30
2023-05-22T22:13:36.045Z,14.30
2023-05-22T22:16:04.121Z,14.30
2023-05-22T22:18:33.745Z,14.30
2023-05-22T22:21:02.331Z,14.20
2023-05-22T22:23:30.576Z,14.30
2023-05-22T22:25:58.561Z,14.30
2023-05-22T22:28:28.334Z,14.30
2023-05-22T22:30:56.328Z,14.30
2023-05-22T22:33:24.725Z,14.20
2023-05-22T22:35:53.967Z,14.20
2023-05-22T22:38:22.719Z,14.20
2023-05-22T22:40:50.894Z,14.10
2023-05-22T22:43:18.937Z,14.10
2023-05-22T22:45:48.556Z,14.00
2023-05-22T22:48:22.341Z,14.00
2023-05-22T22:50:50.571Z,14.00
2023-05-22T22:53:18.476Z,13.90
2023-05-22T22:55:48.929Z,13.90
2023-05-22T22:58:18.755Z,13.80
2023-05-22T23:00:48.110Z,13.80
2023-05-22T23:03:16.211Z,13.80
2023-05-22T23:05:44.387Z,13.80
2023-05-22T23:08:12.707Z,13.80
2023-05-22T23:10:40.709Z,13.80
2023-05-22T23:13:08.736Z,13.70
2023-05-22T23:15:36.758Z,13.70
2023-05-22T23:18:06.322Z,13.70
2023-05-22T23:20:34.662Z,13.60
2023-05-22T23:23:02.581Z,13.60
2023-05-22T23:25:30.480Z,13.60
2023-05-22T23:27:58.426Z,13.60
2023-05-22T23:30:26.552Z,13.50
2023-05-22T23:32:54.828Z,13.50
2023-05-22T23:35:24.419Z,13.50
2023-05-22T23:37:52.398Z,13.40
2023-05-22T23:40:20.338Z,13.40
2023-05-22T23:42:48.475Z,13.40
2023-05-22T23:45:16.568Z,13.40
2023-05-22T23:47:44.520Z,13.40
2023-05-22T23:50:13.151Z,13.40
2023-05-22T23:52:42.768Z,13.40
2023-05-22T23:55:11.136Z,13.40
2023-05-22T23:57:39.034Z,13.40
